Time;durP1;ratioP1;P1;durP2;ratioP2;P2;SDS_P1;SDS_P2;PMS_P1;PMS_P2;Temp;Humidity;BMP_temperature;BMP_pressure;BME280_temperature;BME280_humidity;BME280_pressure;Samples;Min_cycle;Max_cycle;Signal;HPM_P1;HPM_P2
2022/06/05 00:09:38;;;;;;;7.12;4.90;;;21.70;99.90;;;;;;6692924;88;20282;-82
2022/06/05 00:19:43;;;;;;;6.62;4.55;;;21.70;99.90;;;;;;6696489;88;20967;-82
2022/06/05 00:30:08;;;;;;;7.20;4.70;;;21.60;99.90;;;;;;6741512;88;20184;-82
2022/06/05 00:40:37;;;;;;;6.43;4.68;;;21.60;99.90;;;;;;6732913;88;20184;-82
2022/06/05 00:50:40;;;;;;;7.05;4.70;;;21.30;99.90;;;;;;6729034;88;20157;-83
2022/06/05 01:00:47;;;;;;;5.18;4.68;;;21.10;99.90;;;;;;6713123;88;20215;-82
2022/06/05 01:10:48;;;;;;;5.87;5.07;;;21.20;99.90;;;;;;6713112;88;20176;-82
2022/06/05 01:21:12;;;;;;;5.60;5.00;;;21.00;99.90;;;;;;6696263;89;20855;-82
2022/06/05 01:31:32;;;;;;;7.07;4.87;;;20.80;99.90;;;;;;6712622;88;20166;-81
2022/06/05 01:41:40;;;;;;;5.57;5.07;;;20.70;99.90;;;;;;6681488;89;20252;-83
2022/06/05 01:51:52;;;;;;;6.25;5.22;;;20.60;99.90;;;;;;6616970;89;20166;-82
2022/06/05 02:01:57;;;;;;;5.68;4.97;;;20.50;99.90;;;;;;6643047;89;20162;-82
2022/06/05 02:11:58;;;;;;;5.93;4.95;;;20.40;99.90;;;;;;6689219;89;20148;-82
2022/06/05 02:22:06;;;;;;;5.93;4.90;;;20.30;99.90;;;;;;6691696;88;20250;-81
2022/06/05 02:32:35;;;;;;;6.78;5.00;;;20.10;99.90;;;;;;6731839;88;20183;-82
2022/06/05 02:42:48;;;;;;;8.27;4.68;;;20.10;99.90;;;;;;6731158;88;20325;-82
2022/06/05 02:52:51;;;;;;;7.10;5.30;;;20.00;99.90;;;;;;6729259;88;20138;-81
2022/06/05 03:13:12;;;;;;;6.95;5.15;;;19.90;99.90;;;;;;6751281;88;20171;-82
2022/06/05 03:23:13;;;;;;;6.45;4.97;;;19.70;99.90;;;;;;6750999;88;20224;-81
2022/06/05 03:33:13;;;;;;;6.07;5.45;;;19.60;99.90;;;;;;6714159;88;20191;-82
2022/06/05 03:43:15;;;;;;;5.37;4.87;;;19.60;99.90;;;;;;6696608;88;20192;-82
2022/06/05 03:53:16;;;;;;;8.23;4.50;;;19.50;99.90;;;;;;6663013;89;20259;-82
2022/06/05 04:03:16;;;;;;;5.87;4.80;;;19.50;99.90;;;;;;6662896;89;20314;-83
2022/06/05 04:13:17;;;;;;;5.20;4.70;;;19.40;99.90;;;;;;6629457;89;20212;-81
2022/06/05 04:23:18;;;;;;;5.68;4.70;;;19.60;99.90;;;;;;6638981;89;20631;-83
2022/06/05 04:33:19;;;;;;;5.53;4.90;;;19.60;99.90;;;;;;6659485;89;20266;-82
2022/06/05 04:43:19;;;;;;;5.80;5.03;;;19.60;99.90;;;;;;6689377;88;20500;-82
2022/06/05 04:53:20;;;;;;;7.28;4.97;;;19.60;99.90;;;;;;6705869;88;20178;-80
2022/06/05 05:03:20;;;;;;;5.15;4.60;;;19.80;99.90;;;;;;6715664;88;20151;-82
2022/06/05 05:24:02;;;;;;;5.70;5.10;;;20.00;99.90;;;;;;6700440;88;20220;-79
2022/06/05 05:34:04;;;;;;;6.93;5.50;;;20.00;99.90;;;;;;6724961;88;20342;-79
2022/06/05 05:44:04;;;;;;;5.95;5.30;;;19.80;99.90;;;;;;6723184;88;20196;-78
2022/06/05 05:54:06;;;;;;;7.18;5.40;;;20.00;99.90;;;;;;6726447;88;20660;-78
2022/06/05 06:04:06;;;;;;;7.05;5.68;;;20.00;99.90;;;;;;6725146;88;20352;-79
2022/06/05 06:14:07;;;;;;;6.95;5.40;;;20.20;99.90;;;;;;6728504;88;20198;-80
2022/06/05 06:24:07;;;;;;;6.63;5.27;;;20.20;99.90;;;;;;6722971;88;20323;-80
2022/06/05 06:34:08;;;;;;;6.68;5.28;;;20.50;99.90;;;;;;6725646;88;20704;-80
2022/06/05 06:44:09;;;;;;;5.87;5.20;;;20.60;99.90;;;;;;6726510;88;20796;-79
2022/06/05 06:54:10;;;;;;;9.63;5.60;;;20.60;99.90;;;;;;6728156;88;20198;-80
2022/06/05 07:04:10;;;;;;;6.62;5.60;;;20.50;99.90;;;;;;6716455;88;20204;-79
2022/06/05 07:14:11;;;;;;;7.75;5.20;;;20.70;99.90;;;;;;6718093;88;20216;-80
2022/06/05 07:24:11;;;;;;;6.53;5.20;;;20.80;99.90;;;;;;6721926;88;20207;-80
2022/06/05 07:34:12;;;;;;;6.05;5.32;;;20.90;99.90;;;;;;6717746;88;20922;-80
2022/06/05 07:44:12;;;;;;;7.20;5.90;;;21.40;99.90;;;;;;6726352;88;20323;-79
2022/06/05 07:54:30;;;;;;;6.87;6.10;;;21.20;99.90;;;;;;6728177;88;20276;-78
2022/06/05 08:04:32;;;;;;;7.15;6.32;;;20.70;99.90;;;;;;6730329;88;20622;-81
2022/06/05 08:14:34;;;;;;;10.85;7.50;;;20.50;99.90;;;;;;6718019;88;20578;-79
2022/06/05 08:24:35;;;;;;;8.10;7.30;;;20.30;99.90;;;;;;6728567;88;21116;-79
2022/06/05 08:34:37;;;;;;;9.10;8.20;;;19.70;99.90;;;;;;6715258;88;20199;-78
2022/06/05 08:45:11;;;;;;;10.00;8.93;;;19.60;99.90;;;;;;6728631;88;20223;-79
2022/06/05 08:55:25;;;;;;;11.27;9.65;;;19.40;99.90;;;;;;6726043;88;20228;-79
2022/06/05 09:05:31;;;;;;;10.77;9.45;;;19.30;99.90;;;;;;6714430;88;20190;-79
2022/06/05 09:15:43;;;;;;;11.60;10.40;;;19.20;99.90;;;;;;6714260;88;20185;-80
2022/06/05 09:25:58;;;;;;;12.98;11.32;;;19.10;99.90;;;;;;6728558;88;20626;-79
2022/06/05 09:36:03;;;;;;;13.00;11.60;;;19.20;99.90;;;;;;6725706;88;20216;-79
2022/06/05 09:46:20;;;;;;;14.27;12.50;;;19.30;99.90;;;;;;6730198;88;20499;-78
2022/06/05 10:07:20;;;;;;;15.05;11.10;;;19.20;99.90;;;;;;6717579;88;20177;-78
2022/06/05 10:17:40;;;;;;;15.25;13.65;;;19.10;99.90;;;;;;6719174;88;20248;-78
2022/06/05 10:27:54;;;;;;;13.98;12.48;;;19.40;99.90;;;;;;6716494;88;20201;-78
2022/06/05 10:38:32;;;;;;;14.43;11.50;;;19.80;99.90;;;;;;6720798;88;20225;-78
2022/06/05 10:48:58;;;;;;;10.98;8.52;;;20.00;99.90;;;;;;6721836;88;20208;-78
2022/06/05 10:59:35;;;;;;;9.65;8.40;;;20.90;99.90;;;;;;6720607;88;20664;-78
2022/06/05 11:09:55;;;;;;;9.85;8.80;;;21.80;99.90;;;;;;6721022;88;20185;-78
2022/06/05 11:20:14;;;;;;;11.48;8.27;;;21.30;99.90;;;;;;6717983;88;20214;-77
2022/06/05 11:40:40;;;;;;;10.60;7.75;;;21.40;99.90;;;;;;6749753;87;20245;-81
2022/06/05 11:50:51;;;;;;;9.07;7.60;;;20.90;99.90;;;;;;6731196;88;20286;-82
2022/06/05 12:00:58;;;;;;;10.88;9.65;;;21.10;99.90;;;;;;6743284;88;20772;-81
2022/06/05 12:11:01;;;;;;;11.68;10.38;;;20.40;99.90;;;;;;6731969;88;20170;-81
2022/06/05 12:21:19;;;;;;;11.95;10.38;;;20.30;99.90;;;;;;6742535;88;21175;-82
2022/06/05 12:31:20;;;;;;;10.20;8.90;;;20.50;99.90;;;;;;6726126;88;20240;-81
2022/06/05 12:41:23;;;;;;;7.32;6.62;;;20.80;99.90;;;;;;6708817;88;20630;-80
2022/06/05 12:51:27;;;;;;;8.63;6.40;;;20.70;99.90;;;;;;6705622;88;21703;-81
2022/06/05 13:01:39;;;;;;;7.87;6.30;;;21.10;99.90;;;;;;6718918;88;20193;-83
2022/06/05 13:11:46;;;;;;;6.70;5.95;;;21.20;99.90;;;;;;6696076;89;20183;-82
2022/06/05 13:22:01;;;;;;;9.27;6.18;;;21.20;99.90;;;;;;6681296;89;20153;-82
2022/06/05 13:32:19;;;;;;;7.03;6.18;;;21.70;99.90;;;;;;6631439;89;20162;-83
2022/06/05 13:42:23;;;;;;;6.72;6.03;;;21.60;99.90;;;;;;6674073;89;20179;-84
2022/06/05 13:52:37;;;;;;;6.25;5.40;;;21.30;99.90;;;;;;6664386;89;20213;-84
2022/06/05 14:02:44;;;;;;;4.97;4.27;;;21.30;99.90;;;;;;6723544;88;20222;-84
2022/06/05 14:13:01;;;;;;;4.68;4.10;;;21.20;99.90;;;;;;6731030;88;20173;-84
2022/06/05 14:23:04;;;;;;;5.00;4.30;;;21.60;99.90;;;;;;6734376;88;20165;-84
2022/06/05 14:33:12;;;;;;;6.37;5.70;;;22.00;99.90;;;;;;6681132;89;20203;-83
2022/06/05 14:43:21;;;;;;;7.90;6.65;;;21.70;99.90;;;;;;6681361;89;20168;-84
2022/06/05 14:53:47;;;;;;;8.43;7.53;;;20.70;99.90;;;;;;6681015;89;20292;-85
2022/06/05 15:04:07;;;;;;;6.72;5.97;;;21.10;99.90;;;;;;6726266;88;20295;-85
2022/06/05 15:14:47;;;;;;;8.95;6.60;;;21.60;99.90;;;;;;6733648;88;20220;-83
2022/06/05 15:25:15;;;;;;;3.40;2.05;;;21.50;99.90;;;;;;6679990;89;20216;-82
2022/06/05 15:35:56;;;;;;;1.85;1.10;;;21.50;99.90;;;;;;6708105;78;20239;-83
2022/06/05 15:46:24;;;;;;;1.50;1.27;;;21.30;99.90;;;;;;6751320;88;20205;-81
2022/06/05 15:57:06;;;;;;;1.58;1.30;;;21.40;99.90;;;;;;6732252;77;20186;-83
2022/06/05 16:07:16;;;;;;;2.55;1.80;;;22.20;99.90;;;;;;6750525;88;20182;-83
2022/06/05 16:17:22;;;;;;;2.85;1.70;;;22.20;99.90;;;;;;6727779;88;20219;-82
2022/06/05 16:27:35;;;;;;;2.40;2.05;;;22.20;99.90;;;;;;6731218;88;20187;-82
2022/06/05 16:37:53;;;;;;;2.33;2.03;;;21.90;99.90;;;;;;6731744;88;20171;-82
2022/06/05 16:47:59;;;;;;;3.37;2.03;;;21.60;99.90;;;;;;6726436;88;20245;-81
2022/06/05 16:58:09;;;;;;;14.52;8.32;;;21.10;99.90;;;;;;6720562;88;20654;-78
2022/06/05 17:08:33;;;;;;;3.70;2.12;;;21.90;99.90;;;;;;6707233;88;20198;-78
2022/06/05 17:18:54;;;;;;;3.35;2.10;;;21.40;99.90;;;;;;6709106;88;20216;-78
2022/06/05 17:29:11;;;;;;;3.22;1.67;;;21.20;99.90;;;;;;6701455;88;20229;-79
2022/06/05 17:39:49;;;;;;;2.75;1.90;;;21.20;99.90;;;;;;6699676;88;20262;-80
2022/06/05 17:50:24;;;;;;;3.45;1.80;;;21.10;99.90;;;;;;6666602;89;21237;-80
2022/06/05 18:00:26;;;;;;;2.62;1.70;;;21.00;99.90;;;;;;6715532;88;20210;-79
2022/06/05 18:10:29;;;;;;;2.87;1.60;;;20.90;99.90;;;;;;6732194;88;21525;-81
2022/06/05 18:20:52;;;;;;;2.50;1.77;;;20.70;99.90;;;;;;6792608;77;20220;-81
2022/06/05 18:31:18;;;;;;;2.22;1.70;;;20.60;99.90;;;;;;6731621;88;20147;-81
2022/06/05 18:41:18;;;;;;;3.53;1.83;;;20.40;99.90;;;;;;6772410;78;20242;-77
2022/06/05 18:51:28;;;;;;;2.10;1.70;;;20.40;99.90;;;;;;6690407;88;20238;-77
2022/06/05 19:01:33;;;;;;;2.37;2.00;;;20.30;99.90;;;;;;6685186;88;20199;-79
2022/06/05 19:11:45;;;;;;;3.12;2.00;;;20.00;99.90;;;;;;6688433;88;20833;-79
2022/06/05 19:21:56;;;;;;;2.87;2.30;;;19.90;99.90;;;;;;6689820;88;20194;-80
2022/06/05 19:32:10;;;;;;;3.17;2.10;;;19.90;99.90;;;;;;6695767;88;20293;-80
2022/06/05 19:42:36;;;;;;;3.23;2.47;;;19.60;99.90;;;;;;6878059;76;21307;-84
2022/06/05 19:52:41;;;;;;;4.35;2.78;;;19.60;99.90;;;;;;6714365;88;20281;-83
2022/06/05 20:03:07;;;;;;;3.60;2.50;;;19.50;99.90;;;;;;6718177;77;20230;-87
2022/06/05 20:44:24;;;;;;;3.97;2.65;;;19.30;99.90;;;;;;6755159;88;20177;-88
2022/06/05 21:34:50;;;;;;;5.30;3.05;;;18.90;99.90;;;;;;6737393;88;20222;-85
2022/06/05 22:15:21;;;;;;;3.83;2.50;;;18.70;99.90;;;;;;6752858;88;20215;-86
2022/06/05 23:35:48;;;;;;;6.68;4.40;;;17.30;99.90;;;;;;4802910;77;20188;-78
2022/06/05 23:45:49;;;;;;;8.38;5.43;;;17.30;99.90;;;;;;6740758;88;20208;-78
2022/06/05 23:55:50;;;;;;;7.80;5.47;;;17.30;99.90;;;;;;6739172;88;20224;-78
